Time;durP1;ratioP1;P1;durP2;ratioP2;P2;SDS_P1;SDS_P2;PMS_P1;PMS_P2;Temp;Humidity;BMP_temperature;BMP_pressure;BME280_temperature;BME280_humidity;BME280_pressure;Samples;Min_cycle;Max_cycle;Signal;HPM_P1;HPM_P2
2023/07/11 00:00:19;;;;;;;7.55;1.90;;;16.70;99.90;;;;;;5056004;28;20093;-72
2023/07/11 00:02:47;;;;;;;4.70;1.90;;;16.80;99.90;;;;;;5065777;28;20048;-72
2023/07/11 00:05:14;;;;;;;3.97;1.30;;;16.90;99.90;;;;;;5056518;28;20044;-73
2023/07/11 00:07:41;;;;;;;4.47;1.63;;;16.90;99.90;;;;;;5053288;28;20032;-73
2023/07/11 00:10:10;;;;;;;4.15;1.65;;;16.90;99.90;;;;;;5049172;28;20201;-72
2023/07/11 00:12:36;;;;;;;5.28;2.17;;;17.00;99.90;;;;;;5055026;28;20040;-73
2023/07/11 00:15:02;;;;;;;4.10;1.75;;;17.00;99.90;;;;;;5051229;28;20077;-72
2023/07/11 00:17:28;;;;;;;4.20;1.48;;;17.00;99.90;;;;;;5056658;28;20454;-72
2023/07/11 00:19:57;;;;;;;4.20;2.03;;;17.00;99.90;;;;;;5038393;28;20044;-73
2023/07/11 00:22:26;;;;;;;5.57;1.95;;;17.00;99.90;;;;;;5059562;28;20044;-72
2023/07/11 00:24:52;;;;;;;5.22;2.13;;;17.00;99.90;;;;;;5053341;28;20129;-73
2023/07/11 00:27:19;;;;;;;4.10;1.95;;;17.10;99.90;;;;;;5056784;28;20056;-73
2023/07/11 00:29:45;;;;;;;6.35;2.10;;;17.10;99.90;;;;;;5056863;28;20052;-72
2023/07/11 00:32:12;;;;;;;3.85;1.52;;;17.10;99.90;;;;;;5057764;28;20143;-72
2023/07/11 00:34:41;;;;;;;8.60;2.17;;;17.10;99.90;;;;;;5057215;28;20108;-73
2023/07/11 00:37:10;;;;;;;5.13;2.43;;;17.20;99.90;;;;;;5042848;28;20044;-73
2023/07/11 00:39:40;;;;;;;3.08;1.42;;;17.20;99.90;;;;;;5063804;28;20825;-73
2023/07/11 00:42:06;;;;;;;4.35;1.98;;;17.20;99.90;;;;;;5038506;28;20053;-72
2023/07/11 00:44:58;;;;;;;5.95;1.70;;;17.20;99.90;;;;;;5060222;28;20060;-73
2023/07/11 00:47:26;;;;;;;6.78;1.92;;;17.20;99.90;;;;;;5059518;28;20078;-72
2023/07/11 00:50:01;;;;;;;5.18;2.17;;;17.20;99.90;;;;;;5059528;28;20226;-72
2023/07/11 00:52:28;;;;;;;5.78;2.20;;;17.20;99.90;;;;;;5059435;28;20078;-72
2023/07/11 00:54:58;;;;;;;4.90;2.13;;;17.20;99.90;;;;;;5043331;28;20548;-72
2023/07/11 00:57:27;;;;;;;3.88;1.60;;;17.20;99.90;;;;;;5053870;28;20543;-72
2023/07/11 00:59:53;;;;;;;11.30;2.33;;;17.20;99.90;;;;;;5039082;28;20131;-72
2023/07/11 01:02:24;;;;;;;6.25;2.08;;;17.20;99.90;;;;;;5053897;28;20040;-73
2023/07/11 01:04:50;;;;;;;4.55;1.75;;;17.20;99.90;;;;;;5053827;28;20053;-72
2023/07/11 01:07:22;;;;;;;5.10;2.05;;;17.20;99.90;;;;;;5054088;28;20441;-73
2023/07/11 01:09:47;;;;;;;5.40;2.10;;;17.20;99.90;;;;;;5040448;28;20394;-72
2023/07/11 01:12:15;;;;;;;7.40;2.33;;;17.10;99.90;;;;;;5064810;28;20050;-72
2023/07/11 01:14:44;;;;;;;6.55;2.28;;;17.10;99.90;;;;;;5040545;28;20540;-72
2023/07/11 01:17:37;;;;;;;3.72;1.83;;;17.10;99.90;;;;;;5034439;28;20075;-72
2023/07/11 01:20:10;;;;;;;5.38;2.03;;;17.00;99.90;;;;;;5056569;28;20060;-72
2023/07/11 01:22:37;;;;;;;4.78;1.92;;;17.00;99.90;;;;;;5058048;28;20087;-72
2023/07/11 01:25:12;;;;;;;4.20;1.77;;;16.90;99.90;;;;;;5046780;28;20126;-72
2023/07/11 01:27:40;;;;;;;4.75;2.03;;;16.90;99.90;;;;;;5048045;28;20044;-72
2023/07/11 01:30:10;;;;;;;5.93;2.28;;;16.80;99.90;;;;;;5060662;28;20045;-72
2023/07/11 01:32:36;;;;;;;5.72;2.10;;;16.80;99.90;;;;;;5045003;28;20040;-72
2023/07/11 01:35:02;;;;;;;6.32;2.20;;;16.70;99.90;;;;;;5044903;28;20047;-72
2023/07/11 01:37:27;;;;;;;7.28;2.25;;;16.70;99.90;;;;;;5044887;28;20117;-72
2023/07/11 01:39:53;;;;;;;7.03;2.42;;;16.70;99.90;;;;;;5061528;28;20495;-73
2023/07/11 01:42:19;;;;;;;6.20;2.58;;;16.70;99.90;;;;;;5060918;28;20055;-72
2023/07/11 01:44:45;;;;;;;4.50;2.13;;;16.70;99.90;;;;;;5040577;28;20396;-73
2023/07/11 01:47:10;;;;;;;6.20;2.20;;;16.70;99.90;;;;;;5061736;28;20542;-72
2023/07/11 01:49:36;;;;;;;7.57;2.53;;;16.70;99.90;;;;;;5055165;28;20055;-72
2023/07/11 01:52:12;;;;;;;5.50;2.20;;;16.70;99.90;;;;;;5050245;28;20490;-73
2023/07/11 01:54:40;;;;;;;5.95;2.58;;;16.70;99.90;;;;;;5054397;28;20037;-73
2023/07/11 01:57:09;;;;;;;5.82;2.10;;;16.70;99.90;;;;;;5040129;28;20055;-73
2023/07/11 01:59:36;;;;;;;6.22;2.00;;;16.60;99.90;;;;;;5060844;28;20068;-72
2023/07/11 02:02:03;;;;;;;4.97;1.83;;;16.60;99.90;;;;;;5037574;28;20562;-72
2023/07/11 02:04:28;;;;;;;6.63;2.33;;;16.60;99.90;;;;;;5041872;28;20033;-73
2023/07/11 02:06:57;;;;;;;5.65;2.00;;;16.60;99.90;;;;;;5060369;28;20052;-72
2023/07/11 02:09:23;;;;;;;5.75;2.83;;;16.50;99.90;;;;;;5045757;28;20495;-74
2023/07/11 02:11:49;;;;;;;6.55;2.67;;;16.50;99.90;;;;;;5048844;28;20047;-73
2023/07/11 02:14:18;;;;;;;5.13;2.40;;;16.50;99.90;;;;;;5062652;28;20090;-73
2023/07/11 02:16:45;;;;;;;5.82;2.80;;;16.40;99.90;;;;;;5055530;28;20479;-73
2023/07/11 02:19:22;;;;;;;6.68;2.75;;;16.40;99.90;;;;;;5057698;28;20157;-73
2023/07/11 02:21:49;;;;;;;8.45;3.20;;;16.50;99.90;;;;;;5057828;28;20048;-73
2023/07/11 02:24:16;;;;;;;6.93;2.72;;;16.40;99.90;;;;;;5032746;28;20053;-73
2023/07/11 02:26:42;;;;;;;9.48;3.50;;;16.40;99.90;;;;;;5058112;28;20067;-72
2023/07/11 02:29:09;;;;;;;6.60;3.20;;;16.50;99.90;;;;;;5038468;28;20091;-72
2023/07/11 02:31:36;;;;;;;4.72;2.45;;;16.50;99.90;;;;;;5061091;28;20917;-72
2023/07/11 02:34:02;;;;;;;6.30;3.17;;;16.40;99.90;;;;;;5046447;28;20044;-73
2023/07/11 02:36:29;;;;;;;6.35;3.35;;;16.40;99.90;;;;;;5064438;28;20044;-72
2023/07/11 02:38:56;;;;;;;7.95;3.15;;;16.40;99.90;;;;;;5053251;28;20632;-73
2023/07/11 02:41:22;;;;;;;7.35;3.30;;;16.40;99.90;;;;;;5042070;28;20048;-73
2023/07/11 02:43:48;;;;;;;6.20;2.72;;;16.40;99.90;;;;;;5053234;28;20040;-72
2023/07/11 02:46:15;;;;;;;5.75;2.88;;;16.30;99.90;;;;;;5064019;28;20040;-72
2023/07/11 02:48:42;;;;;;;4.85;2.35;;;16.30;99.90;;;;;;5042488;28;20032;-73
2023/07/11 02:51:11;;;;;;;4.47;2.10;;;16.40;99.90;;;;;;5061971;28;20052;-73
2023/07/11 02:53:40;;;;;;;3.22;1.73;;;16.40;99.90;;;;;;5054312;28;20047;-73
2023/07/11 02:56:05;;;;;;;9.93;4.18;;;16.40;99.90;;;;;;5058589;28;20033;-73
2023/07/11 02:58:31;;;;;;;6.25;3.60;;;16.40;99.90;;;;;;5044814;28;20059;-73
2023/07/11 03:00:59;;;;;;;5.40;3.45;;;16.40;99.90;;;;;;5060934;28;20052;-73
2023/07/11 03:03:25;;;;;;;7.43;3.00;;;16.30;99.90;;;;;;5041031;28;20048;-73
2023/07/11 03:05:52;;;;;;;6.03;2.63;;;16.20;99.90;;;;;;5058667;28;20041;-73
2023/07/11 03:08:19;;;;;;;5.13;3.03;;;16.20;99.90;;;;;;5062789;28;20406;-73
2023/07/11 03:10:45;;;;;;;5.53;2.60;;;16.10;99.90;;;;;;5060760;28;20041;-73
2023/07/11 03:13:10;;;;;;;4.72;2.40;;;16.10;99.90;;;;;;5044065;28;20106;-73
2023/07/11 03:15:40;;;;;;;4.57;2.53;;;16.20;99.90;;;;;;5064803;28;20555;-73
2023/07/11 03:18:07;;;;;;;3.88;2.70;;;16.20;99.90;;;;;;5045790;28;20043;-73
2023/07/11 03:20:37;;;;;;;6.82;2.70;;;16.20;99.90;;;;;;5055941;28;20396;-73
2023/07/11 03:23:04;;;;;;;6.43;2.38;;;16.20;99.90;;;;;;5059651;28;20041;-73
2023/07/11 03:25:30;;;;;;;6.78;3.00;;;16.20;99.90;;;;;;5064346;28;20047;-72
2023/07/11 03:27:55;;;;;;;5.53;2.53;;;16.10;99.90;;;;;;5062709;28;20046;-73
2023/07/11 03:30:21;;;;;;;8.65;2.75;;;16.10;99.90;;;;;;5062369;28;20139;-73
2023/07/11 03:32:47;;;;;;;4.65;2.67;;;16.10;99.90;;;;;;5055802;28;20040;-73
2023/07/11 03:35:13;;;;;;;6.88;3.17;;;16.10;99.90;;;;;;5058680;28;20036;-73
2023/07/11 03:37:39;;;;;;;9.25;3.38;;;16.10;99.90;;;;;;5060757;28;20053;-73
2023/07/11 03:40:05;;;;;;;8.90;4.05;;;16.10;99.90;;;;;;5057622;28;20623;-73
2023/07/11 03:42:31;;;;;;;9.50;3.55;;;16.10;99.90;;;;;;5059291;28;20087;-74
2023/07/11 03:44:56;;;;;;;7.32;3.53;;;16.20;99.90;;;;;;5049469;28;20119;-73
2023/07/11 03:47:23;;;;;;;7.80;4.30;;;16.20;99.90;;;;;;5043880;28;20044;-73
2023/07/11 03:49:49;;;;;;;6.95;3.85;;;16.20;99.90;;;;;;5056079;28;20044;-73
2023/07/11 03:52:15;;;;;;;11.23;4.22;;;16.30;99.90;;;;;;5061430;28;20261;-73
2023/07/11 03:54:40;;;;;;;7.90;4.32;;;16.30;99.90;;;;;;5059814;28;20071;-73
2023/07/11 03:57:06;;;;;;;8.18;4.45;;;16.30;99.90;;;;;;5042573;28;20080;-73
2023/07/11 03:59:32;;;;;;;10.80;6.47;;;16.40;99.90;;;;;;5064961;28;20446;-73
2023/07/11 04:01:58;;;;;;;9.00;5.60;;;16.40;99.90;;;;;;5055529;28;20068;-73
2023/07/11 04:04:23;;;;;;;9.00;5.68;;;16.40;99.90;;;;;;5043016;28;20045;-73
2023/07/11 04:06:49;;;;;;;8.00;5.05;;;16.30;99.90;;;;;;5041882;28;20036;-73
2023/07/11 04:09:15;;;;;;;9.40;4.60;;;16.30;99.90;;;;;;5056325;28;20076;-73
2023/07/11 04:11:40;;;;;;;6.80;4.15;;;16.20;99.90;;;;;;5060109;28;20048;-73
2023/07/11 04:14:09;;;;;;;6.35;5.03;;;16.20;99.90;;;;;;5053382;28;20094;-73
2023/07/11 04:16:34;;;;;;;10.18;6.85;;;16.20;99.90;;;;;;5035015;28;20503;-73
2023/07/11 04:19:00;;;;;;;10.18;4.90;;;16.20;99.90;;;;;;5047629;28;20047;-73
2023/07/11 04:21:26;;;;;;;8.13;4.47;;;16.20;99.90;;;;;;5059149;28;20048;-73
2023/07/11 04:23:52;;;;;;;7.45;5.45;;;16.20;99.90;;;;;;5055190;28;20518;-73
2023/07/11 04:26:18;;;;;;;7.57;4.90;;;16.20;99.90;;;;;;5064323;28;20048;-73
2023/07/11 04:28:43;;;;;;;9.30;4.50;;;16.20;99.90;;;;;;5055190;28;20040;-73
2023/07/11 04:31:09;;;;;;;6.40;4.05;;;16.30;99.90;;;;;;5065225;28;20051;-73
2023/07/11 04:33:35;;;;;;;8.18;4.03;;;16.30;99.90;;;;;;5037140;28;20045;-73
2023/07/11 04:36:07;;;;;;;9.23;4.43;;;16.40;99.90;;;;;;5054109;28;20675;-73
2023/07/11 04:38:33;;;;;;;7.68;5.10;;;16.50;99.90;;;;;;5054410;28;20206;-73
2023/07/11 04:41:07;;;;;;;6.32;4.60;;;16.50;99.90;;;;;;5039576;28;20341;-73
2023/07/11 04:43:33;;;;;;;9.18;5.22;;;16.60;99.90;;;;;;5044391;28;20138;-73
2023/07/11 04:46:01;;;;;;;8.80;6.13;;;16.60;99.90;;;;;;5065916;28;20049;-73
2023/07/11 04:48:27;;;;;;;9.27;5.57;;;16.70;99.90;;;;;;5047370;28;20040;-73
2023/07/11 04:51:00;;;;;;;9.10;5.95;;;16.80;99.90;;;;;;5059931;28;20114;-73
2023/07/11 04:53:27;;;;;;;8.70;5.88;;;16.80;99.90;;;;;;5061448;28;20056;-73
2023/07/11 04:55:57;;;;;;;7.43;5.40;;;16.90;99.90;;;;;;5060396;28;20040;-73
2023/07/11 04:58:23;;;;;;;;;;;16.90;99.90;;;;;;5059060;28;20052;-73
2023/07/11 05:00:49;;;;;;;7.72;5.43;;;17.00;99.90;;;;;;5058563;28;19920;-73
2023/07/11 05:03:15;;;;;;;10.45;5.82;;;17.00;99.90;;;;;;5045381;28;20835;-73
2023/07/11 05:05:40;;;;;;;10.10;5.85;;;17.10;99.90;;;;;;5048271;28;21164;-73
2023/07/11 05:08:06;;;;;;;9.55;7.20;;;17.10;99.90;;;;;;5062607;28;20063;-73
2023/07/11 05:10:32;;;;;;;10.40;7.43;;;17.10;99.90;;;;;;5072818;28;20048;-73
2023/07/11 05:12:57;;;;;;;8.18;6.43;;;17.20;99.90;;;;;;5068719;28;20602;-73
2023/07/11 05:15:23;;;;;;;9.50;7.28;;;17.20;99.90;;;;;;5067806;28;20047;-73
2023/07/11 05:17:49;;;;;;;12.38;7.47;;;17.30;99.90;;;;;;5067666;28;20047;-74
2023/07/11 05:20:15;;;;;;;12.88;8.43;;;17.30;99.90;;;;;;5065549;28;20052;-74
2023/07/11 05:22:40;;;;;;;9.70;7.53;;;17.40;99.90;;;;;;5063165;28;20041;-73
2023/07/11 05:25:07;;;;;;;11.20;7.22;;;17.40;99.90;;;;;;5064280;28;20951;-73
2023/07/11 05:27:33;;;;;;;12.45;7.60;;;17.50;99.90;;;;;;5057252;28;20114;-74
2023/07/11 05:29:58;;;;;;;10.55;7.88;;;17.50;99.90;;;;;;5057995;28;20044;-73
2023/07/11 05:32:24;;;;;;;10.70;8.05;;;17.60;99.90;;;;;;5074562;28;20449;-74
2023/07/11 05:34:50;;;;;;;9.32;7.10;;;17.70;99.90;;;;;;5064067;28;20044;-73
2023/07/11 05:37:16;;;;;;;9.82;7.70;;;17.80;99.90;;;;;;5045094;28;20040;-74
2023/07/11 05:39:42;;;;;;;9.65;7.38;;;17.80;99.90;;;;;;5062666;28;20075;-74
2023/07/11 05:42:08;;;;;;;9.23;7.50;;;17.90;99.90;;;;;;5042078;28;20850;-78
2023/07/11 05:44:33;;;;;;;10.13;7.95;;;18.00;99.90;;;;;;5048265;28;20438;-78
2023/07/11 05:46:59;;;;;;;11.43;7.78;;;18.10;99.90;;;;;;5044481;28;20799;-77
2023/07/11 05:49:25;;;;;;;9.98;7.53;;;18.10;99.90;;;;;;5047317;28;20061;-78
2023/07/11 05:51:51;;;;;;;9.18;7.38;;;18.20;99.90;;;;;;5057963;28;20382;-78
2023/07/11 05:54:17;;;;;;;9.68;7.22;;;18.30;99.90;;;;;;5049354;28;20117;-79
2023/07/11 05:56:43;;;;;;;10.23;7.40;;;18.30;99.90;;;;;;5058105;28;20048;-79
2023/07/11 05:59:09;;;;;;;8.65;6.95;;;18.40;99.90;;;;;;5074721;28;20078;-78
2023/07/11 06:01:34;;;;;;;9.05;7.18;;;18.50;99.90;;;;;;5055019;28;20130;-78
2023/07/11 06:04:05;;;;;;;11.13;7.25;;;18.60;99.90;;;;;;5044389;28;20044;-78
2023/07/11 06:06:32;;;;;;;;;;;18.70;99.90;;;;;;5061680;28;20598;-78
2023/07/11 06:09:00;;;;;;;;;;;18.80;99.90;;;;;;5057988;28;19920;-79
2023/07/11 06:11:26;;;;;;;11.25;7.13;;;18.80;99.90;;;;;;5048029;28;20419;-78
2023/07/11 06:13:52;;;;;;;12.13;7.80;;;18.90;99.90;;;;;;5058830;28;20596;-83
2023/07/11 06:16:18;;;;;;;10.15;6.95;;;19.00;99.90;;;;;;5055032;28;20044;-84
2023/07/11 06:18:47;;;;;;;9.88;7.53;;;19.10;99.90;;;;;;5064994;28;20032;-83
2023/07/11 06:21:13;;;;;;;10.98;6.82;;;19.20;99.90;;;;;;5051200;28;20048;-84
2023/07/11 06:23:39;;;;;;;11.23;7.28;;;19.20;99.90;;;;;;5065624;28;20054;-83
2023/07/11 06:26:05;;;;;;;9.77;6.82;;;19.30;99.90;;;;;;5063107;28;20065;-84
2023/07/11 06:28:32;;;;;;;9.60;7.13;;;19.50;99.90;;;;;;5067818;28;20133;-83
2023/07/11 06:31:00;;;;;;;8.68;6.78;;;19.60;99.90;;;;;;5061866;28;20585;-84
2023/07/11 06:33:27;;;;;;;10.95;6.85;;;19.60;99.90;;;;;;5045712;28;20048;-84
2023/07/11 06:35:53;;;;;;;10.93;6.95;;;19.70;99.90;;;;;;5052119;28;20049;-84
2023/07/11 06:38:20;;;;;;;10.07;7.22;;;19.80;99.90;;;;;;5050783;28;20076;-84
2023/07/11 06:40:51;;;;;;;8.95;6.20;;;19.90;99.90;;;;;;5043608;28;20036;-84
2023/07/11 06:43:18;;;;;;;9.32;6.50;;;20.00;99.90;;;;;;5068901;28;20403;-84
2023/07/11 06:45:47;;;;;;;11.70;6.50;;;20.10;99.90;;;;;;5064198;28;20047;-86
2023/07/11 06:48:14;;;;;;;;;;;20.30;99.90;;;;;;5052898;28;20285;-84
2023/07/11 06:50:40;;;;;;;8.35;6.20;;;20.40;99.90;;;;;;5063685;28;19920;-84
2023/07/11 06:53:06;;;;;;;9.30;5.93;;;20.50;99.90;;;;;;5059488;28;20059;-86
2023/07/11 06:55:31;;;;;;;8.90;5.80;;;20.60;99.90;;;;;;5048099;28;20064;-83
2023/07/11 06:57:57;;;;;;;8.52;5.60;;;20.70;99.90;;;;;;5050894;28;20129;-85
2023/07/11 07:00:24;;;;;;;8.75;6.00;;;20.90;99.90;;;;;;5056867;28;20132;-84
2023/07/11 07:02:50;;;;;;;8.35;5.32;;;21.00;99.90;;;;;;5070929;28;20048;-85
2023/07/11 07:05:16;;;;;;;9.52;6.10;;;21.00;99.90;;;;;;5064865;28;20414;-85
2023/07/11 07:07:41;;;;;;;9.55;5.85;;;21.10;99.90;;;;;;5063241;28;20040;-84
2023/07/11 07:10:08;;;;;;;7.50;5.07;;;21.20;99.90;;;;;;5052113;28;20150;-83
2023/07/11 07:12:33;;;;;;;9.05;5.68;;;21.30;99.90;;;;;;5044937;28;20043;-84
2023/07/11 07:14:59;;;;;;;8.88;5.13;;;21.40;99.90;;;;;;5059927;28;20362;-83
2023/07/11 07:17:25;;;;;;;8.25;4.97;;;21.50;99.90;;;;;;5061659;28;20048;-85
2023/07/11 07:19:52;;;;;;;10.07;4.97;;;21.50;99.90;;;;;;5042888;28;20106;-83
2023/07/11 07:22:17;;;;;;;10.55;5.30;;;21.60;99.90;;;;;;5044627;28;20075;-84
2023/07/11 07:24:44;;;;;;;7.95;5.05;;;21.70;99.90;;;;;;5046183;28;20483;-83
2023/07/11 07:27:11;;;;;;;7.80;5.45;;;21.90;99.90;;;;;;5048730;28;20127;-85
2023/07/11 07:29:37;;;;;;;10.63;5.45;;;22.10;99.90;;;;;;5061914;28;20047;-83
2023/07/11 07:32:03;;;;;;;8.30;5.13;;;22.30;99.90;;;;;;5060335;28;20063;-83
2023/07/11 07:34:29;;;;;;;7.95;5.05;;;22.40;99.90;;;;;;5042587;28;20044;-84
2023/07/11 07:36:55;;;;;;;9.10;4.95;;;22.40;99.90;;;;;;5050423;28;20032;-82
2023/07/11 07:39:21;;;;;;;9.70;5.28;;;22.60;99.90;;;;;;5055376;28;20111;-86
2023/07/11 07:41:46;;;;;;;8.80;4.70;;;22.70;99.90;;;;;;5044272;28;20039;-82
2023/07/11 07:44:13;;;;;;;7.90;4.22;;;22.70;99.90;;;;;;5045040;28;20051;-84
2023/07/11 07:46:39;;;;;;;7.60;4.90;;;22.80;99.90;;;;;;5045780;28;20044;-84
2023/07/11 07:49:04;;;;;;;9.63;5.35;;;22.80;99.90;;;;;;5051655;28;20130;-83
2023/07/11 07:51:30;;;;;;;8.55;4.65;;;22.90;99.90;;;;;;5053038;28;20039;-82
2023/07/11 07:53:56;;;;;;;8.25;4.40;;;23.00;99.90;;;;;;5069354;28;20036;-84
2023/07/11 07:56:23;;;;;;;9.32;5.15;;;23.10;99.90;;;;;;5046785;28;20514;-83
2023/07/11 07:58:50;;;;;;;7.55;5.55;;;23.20;99.90;;;;;;5074690;28;20449;-84
2023/07/11 08:01:19;;;;;;;7.43;4.85;;;23.20;99.90;;;;;;5053576;28;20547;-83
2023/07/11 08:03:45;;;;;;;9.20;5.10;;;23.20;99.90;;;;;;5043799;28;20045;-85
2023/07/11 08:06:12;;;;;;;7.85;4.63;;;23.20;99.90;;;;;;5050635;28;20415;-83
2023/07/11 08:08:39;;;;;;;7.75;4.63;;;23.20;99.90;;;;;;5052517;28;20116;-83
2023/07/11 08:11:06;;;;;;;9.05;4.65;;;23.30;99.90;;;;;;5062714;28;20111;-83
2023/07/11 08:13:34;;;;;;;8.30;4.03;;;23.40;99.90;;;;;;5053117;28;20122;-83
2023/07/11 08:16:01;;;;;;;10.73;4.10;;;23.60;99.90;;;;;;5062427;28;20111;-83
2023/07/11 08:18:28;;;;;;;6.05;3.90;;;23.70;99.90;;;;;;5048631;28;20502;-82
2023/07/11 08:20:54;;;;;;;7.15;3.72;;;23.90;99.90;;;;;;5063410;28;20143;-84
2023/07/11 08:23:21;;;;;;;8.20;3.92;;;24.10;99.90;;;;;;5060323;28;20190;-83
2023/07/11 08:25:55;;;;;;;7.68;3.55;;;24.30;99.90;;;;;;5062587;28;20051;-85
2023/07/11 08:28:21;;;;;;;8.57;4.00;;;24.50;99.90;;;;;;5058726;28;20052;-84
2023/07/11 08:30:47;;;;;;;7.47;3.13;;;24.60;99.90;;;;;;5061911;28;20105;-83
2023/07/11 08:33:13;;;;;;;6.85;3.42;;;24.70;99.90;;;;;;5070658;28;20060;-84
2023/07/11 08:35:39;;;;;;;7.15;3.28;;;24.90;99.90;;;;;;5062088;28;20065;-83
2023/07/11 08:38:11;;;;;;;10.15;3.28;;;25.10;99.90;;;;;;5050026;28;20040;-85
2023/07/11 08:40:43;;;;;;;7.38;3.10;;;25.10;99.40;;;;;;5064598;28;20080;-84
2023/07/11 08:43:26;;;;;;;5.10;2.95;;;25.10;97.60;;;;;;5040798;28;20372;-84
2023/07/11 08:46:10;;;;;;;6.85;2.90;;;25.20;97.50;;;;;;5062273;28;20131;-84
2023/07/11 08:48:42;;;;;;;6.30;2.90;;;25.20;97.80;;;;;;5074486;28;20059;-84
2023/07/11 08:51:23;;;;;;;7.63;3.03;;;25.40;98.20;;;;;;5047203;28;20069;-84
2023/07/11 08:54:03;;;;;;;9.02;2.83;;;25.50;95.70;;;;;;5069106;28;20455;-83
2023/07/11 08:56:43;;;;;;;6.95;2.75;;;25.50;98.00;;;;;;5067030;28;20048;-83
2023/07/11 08:59:24;;;;;;;6.35;2.67;;;25.60;97.30;;;;;;5064723;28;20072;-83
2023/07/11 09:02:08;;;;;;;7.95;2.78;;;25.80;95.40;;;;;;5074626;28;20414;-80
2023/07/11 09:04:43;;;;;;;4.82;1.88;;;25.90;95.60;;;;;;5071514;28;20048;-82
2023/07/11 09:07:42;;;;;;;5.55;2.38;;;26.00;93.40;;;;;;5050336;28;20036;-83
2023/07/11 09:10:34;;;;;;;8.25;1.80;;;26.10;90.70;;;;;;5062641;28;20044;-83
2023/07/11 09:13:34;;;;;;;7.50;2.55;;;26.00;90.70;;;;;;5047527;28;20506;-83
2023/07/11 09:16:24;;;;;;;5.97;2.55;;;26.10;91.40;;;;;;5065508;28;20513;-84
2023/07/11 09:18:58;;;;;;;;;;;26.10;90.60;;;;;;5052799;28;20044;-82
2023/07/11 09:21:32;;;;;;;6.82;2.22;;;26.00;91.00;;;;;;5069553;28;20388;-83
2023/07/11 09:24:31;;;;;;;8.13;2.10;;;26.10;90.70;;;;;;5074808;28;20131;-85
2023/07/11 09:27:04;;;;;;;6.03;2.33;;;26.20;90.10;;;;;;5056972;28;20083;-83
2023/07/11 09:29:31;;;;;;;6.55;2.20;;;26.30;88.30;;;;;;5054819;28;20105;-83
2023/07/11 09:31:59;;;;;;;4.82;2.13;;;26.50;88.40;;;;;;5046275;28;20644;-84
2023/07/11 09:34:34;;;;;;;5.45;1.80;;;26.70;87.90;;;;;;5071529;28;20040;-86
2023/07/11 09:37:24;;;;;;;5.28;2.42;;;27.00;87.70;;;;;;5056330;28;20047;-85
2023/07/11 09:39:58;;;;;;;4.88;2.03;;;27.20;84.00;;;;;;5052384;28;20067;-83
2023/07/11 09:42:47;;;;;;;8.27;2.63;;;27.20;83.50;;;;;;5070639;28;20052;-84
2023/07/11 09:45:17;;;;;;;5.93;2.50;;;27.10;85.00;;;;;;5064377;28;20037;-83
2023/07/11 09:47:48;;;;;;;5.70;2.10;;;27.00;82.50;;;;;;5061474;28;20054;-84
2023/07/11 09:50:42;;;;;;;5.25;2.22;;;27.00;80.80;;;;;;5065231;28;20044;-83
2023/07/11 09:53:15;;;;;;;5.55;1.88;;;26.90;81.30;;;;;;5046751;28;20510;-84
2023/07/11 09:55:41;;;;;;;6.72;2.10;;;26.90;82.70;;;;;;5049777;28;20386;-81
2023/07/11 09:58:16;;;;;;;6.57;2.28;;;27.10;83.20;;;;;;5048106;28;20036;-81
2023/07/11 10:00:51;;;;;;;5.15;2.30;;;27.30;84.40;;;;;;5062684;28;20063;-80
2023/07/11 10:03:19;;;;;;;5.90;2.70;;;27.70;84.60;;;;;;5052403;28;20415;-81
2023/07/11 10:05:47;;;;;;;6.88;2.10;;;27.80;79.60;;;;;;5051357;28;20105;-82
2023/07/11 10:08:30;;;;;;;6.13;2.78;;;27.70;82.20;;;;;;5056143;28;20055;-81
2023/07/11 10:11:03;;;;;;;5.53;2.10;;;27.80;82.00;;;;;;5046508;28;20079;-81
2023/07/11 10:13:29;;;;;;;6.00;2.30;;;27.90;81.70;;;;;;5043945;28;20067;-77
2023/07/11 10:16:00;;;;;;;5.10;2.20;;;28.00;80.60;;;;;;5069684;28;20407;-83
2023/07/11 10:18:28;;;;;;;5.65;1.90;;;28.00;78.20;;;;;;5059340;28;20048;-80
2023/07/11 10:21:18;;;;;;;7.00;2.40;;;28.00;79.90;;;;;;5072039;28;20059;-84
2023/07/11 10:23:46;;;;;;;5.90;2.10;;;28.10;82.00;;;;;;5065680;28;20131;-84
2023/07/11 10:26:19;;;;;;;6.13;2.03;;;28.30;80.10;;;;;;5068814;28;20048;-83
2023/07/11 10:28:55;;;;;;;6.80;2.38;;;28.50;81.10;;;;;;5045233;28;20064;-84
2023/07/11 10:31:38;;;;;;;8.63;2.30;;;28.70;80.80;;;;;;5047525;28;20531;-82
2023/07/11 10:34:36;;;;;;;5.60;1.98;;;28.80;80.50;;;;;;5056152;28;20125;-84
2023/07/11 10:37:15;;;;;;;6.00;2.40;;;28.90;77.80;;;;;;5054424;28;20405;-84
2023/07/11 10:39:51;;;;;;;5.10;2.13;;;29.00;77.90;;;;;;5065231;28;20097;-83
2023/07/11 10:42:23;;;;;;;5.05;2.00;;;29.00;77.90;;;;;;5067746;28;20052;-81
2023/07/11 10:44:58;;;;;;;5.70;2.28;;;28.90;77.20;;;;;;5053036;28;20449;-81
2023/07/11 10:47:32;;;;;;;4.47;1.98;;;28.90;75.90;;;;;;5065638;28;20044;-80
2023/07/11 10:50:06;;;;;;;4.15;1.90;;;28.90;77.70;;;;;;5047553;28;20139;-82
2023/07/11 10:52:35;;;;;;;5.95;2.13;;;29.00;76.70;;;;;;5043601;28;20049;-85
2023/07/11 10:55:05;;;;;;;5.22;2.17;;;29.00;77.20;;;;;;5041923;28;20043;-81
2023/07/11 10:57:50;;;;;;;5.63;2.30;;;29.10;78.10;;;;;;5048638;28;20186;-81
2023/07/11 11:00:49;;;;;;;4.82;1.98;;;29.30;77.50;;;;;;5045634;28;20060;-81
2023/07/11 11:03:35;;;;;;;5.53;1.88;;;29.50;78.00;;;;;;5032644;28;20514;-82
2023/07/11 11:06:13;;;;;;;6.60;1.92;;;29.50;77.20;;;;;;5062792;28;20055;-83
2023/07/11 11:08:48;;;;;;;9.40;1.98;;;29.70;75.30;;;;;;5046749;28;20072;-82
2023/07/11 11:11:13;;;;;;;6.50;2.20;;;29.70;74.50;;;;;;5062327;28;20048;-82
2023/07/11 11:13:58;;;;;;;7.72;2.10;;;29.70;73.80;;;;;;5048133;28;20497;-82
2023/07/11 11:16:49;;;;;;;6.28;2.17;;;29.70;73.50;;;;;;5062920;28;20048;-82
2023/07/11 11:19:23;;;;;;;9.05;2.30;;;29.80;75.10;;;;;;5063897;28;20098;-82
2023/07/11 11:22:09;;;;;;;4.97;1.98;;;29.80;72.90;;;;;;5065906;28;20098;-82
2023/07/11 11:25:00;;;;;;;7.30;2.47;;;29.80;71.80;;;;;;5048863;28;20049;-81
2023/07/11 11:27:50;;;;;;;6.57;2.42;;;29.70;71.70;;;;;;5025384;28;20048;-82
2023/07/11 11:31:11;;;;;;;4.57;1.92;;;29.60;72.90;;;;;;5043726;28;20102;-82
2023/07/11 11:33:42;;;;;;;9.85;2.33;;;29.70;72.70;;;;;;5059915;28;20506;-83
2023/07/11 11:36:42;;;;;;;5.40;2.00;;;29.80;72.60;;;;;;5045609;28;20047;-83
2023/07/11 11:39:26;;;;;;;;;;;29.80;71.60;;;;;;5061704;28;20075;-83
2023/07/11 11:42:02;;;;;;;4.93;2.08;;;29.80;71.50;;;;;;5051822;28;20015;-82
2023/07/11 11:44:38;;;;;;;6.38;2.33;;;29.90;68.90;;;;;;5063667;28;20037;-83
2023/07/11 11:47:05;;;;;;;5.68;2.30;;;29.90;70.10;;;;;;5064490;28;20048;-82
2023/07/11 11:49:37;;;;;;;8.63;2.40;;;29.90;70.10;;;;;;5061678;28;20052;-83
2023/07/11 11:52:05;;;;;;;7.13;2.30;;;29.80;69.50;;;;;;5059376;28;20037;-83
2023/07/11 11:54:42;;;;;;;5.60;2.20;;;29.90;71.20;;;;;;5048458;28;20051;-81
2023/07/11 11:57:14;;;;;;;4.10;2.13;;;29.90;70.20;;;;;;5046566;28;20181;-82
2023/07/11 11:59:40;;;;;;;5.88;2.25;;;30.00;69.10;;;;;;5064896;28;20044;-82
2023/07/11 12:02:16;;;;;;;7.05;2.47;;;30.00;67.90;;;;;;5055715;28;20048;-82
2023/07/11 12:05:06;;;;;;;6.28;2.40;;;29.90;68.40;;;;;;5042000;28;20821;-81
2023/07/11 12:07:37;;;;;;;5.82;2.50;;;29.80;68.90;;;;;;5047912;28;20364;-82
2023/07/11 12:10:14;;;;;;;6.88;2.50;;;29.70;70.70;;;;;;5044469;28;21101;-81
2023/07/11 12:12:40;;;;;;;5.35;2.40;;;29.80;69.20;;;;;;5041207;28;20124;-81
2023/07/11 12:15:12;;;;;;;5.53;2.40;;;29.70;68.40;;;;;;5046370;28;20051;-81
2023/07/11 12:17:44;;;;;;;6.75;2.55;;;29.60;68.50;;;;;;5041620;28;20131;-81
2023/07/11 12:20:13;;;;;;;7.35;2.45;;;29.50;69.30;;;;;;5048265;28;20033;-81
2023/07/11 12:22:39;;;;;;;5.30;2.10;;;29.60;70.10;;;;;;5046295;28;20044;-81
2023/07/11 12:25:24;;;;;;;8.98;2.20;;;29.60;71.00;;;;;;5059196;28;20499;-81
2023/07/11 12:27:53;;;;;;;5.28;2.05;;;29.60;69.30;;;;;;5060645;28;20484;-82
2023/07/11 12:30:28;;;;;;;6.38;2.15;;;29.60;69.10;;;;;;5057152;28;20135;-82
2023/07/11 12:32:55;;;;;;;5.88;2.22;;;29.50;67.70;;;;;;5043498;28;20044;-82
2023/07/11 12:35:33;;;;;;;6.30;2.38;;;29.50;67.40;;;;;;5044566;28;20624;-81
2023/07/11 12:37:59;;;;;;;4.38;2.10;;;29.40;68.30;;;;;;5044110;28;20044;-81
2023/07/11 12:40:50;;;;;;;5.40;2.53;;;29.20;68.10;;;;;;5044283;28;20040;-80
2023/07/11 12:43:17;;;;;;;6.80;2.60;;;29.10;68.80;;;;;;5065798;28;20056;-82
2023/07/11 12:45:50;;;;;;;5.72;2.50;;;29.10;69.30;;;;;;5047777;28;20097;-82
2023/07/11 12:48:17;;;;;;;4.63;2.22;;;29.00;69.10;;;;;;5058158;28;20530;-81
2023/07/11 12:50:52;;;;;;;4.75;2.30;;;29.00;69.50;;;;;;5053343;28;20052;-83
2023/07/11 12:53:18;;;;;;;6.63;2.83;;;29.10;70.30;;;;;;5062799;28;20060;-81
2023/07/11 12:55:50;;;;;;;5.78;2.35;;;29.10;69.00;;;;;;5048325;28;20407;-83
2023/07/11 12:58:30;;;;;;;4.57;2.45;;;29.00;69.20;;;;;;5043008;28;20554;-81
2023/07/11 13:00:58;;;;;;;5.80;2.20;;;28.90;68.90;;;;;;5039139;28;20477;-82
2023/07/11 13:03:34;;;;;;;7.00;2.72;;;29.00;69.80;;;;;;5067742;28;20045;-81